Time,TemperatureF,DewpointF,PressureIn,WindDirection,WindDirectionDegrees,WindSpeedMPH,WindSpeedGustMPH,Humidity,HourlyPrecipIn,Conditions,Clouds,dailyrainin,SoftwareType,DateUTC
2013-08-03 00:02:00,71.6,68.2,29.87,West,273,0.5,1.5,89,0.00,RA,,0.00,WeatherDisplay:10.37,2013-08-03 05:02:00,
2013-08-03 00:07:00,71.6,68.2,29.87,West,273,0.0,0.0,89,0.00,RA,,0.00,WeatherDisplay:10.37,2013-08-03 05:07:00,
2013-08-03 00:12:00,71.6,68.5,29.87,West,273,0.0,0.0,90,0.00,BKN,,0.00,WeatherDisplay:10.37,2013-08-03 05:12:00,
2013-08-03 00:17:00,71.5,68.4,29.87,West,273,0.0,0.0,90,0.05,BKN,,0.01,WeatherDisplay:10.37,2013-08-03 05:17:00,
2013-08-03 00:22:00,71.5,68.4,29.87,West,273,0.0,0.0,90,0.00,RA,,0.02,WeatherDisplay:10.37,2013-08-03 05:22:00,
2013-08-03 00:27:00,71.5,68.4,29.87,West,273,0.0,0.0,90,0.05,RA,,0.07,WeatherDisplay:10.37,2013-08-03 05:27:00,
2013-08-03 00:32:00,71.5,68.4,29.87,West,273,0.0,0.0,90,0.04,RA,,0.07,WeatherDisplay:10.37,2013-08-03 05:32:00,
2013-08-03 00:37:00,71.5,68.4,29.87,West,273,0.0,0.0,90,0.04,RA,,0.07,WeatherDisplay:10.37,2013-08-03 05:37:00,
2013-08-03 00:42:00,71.5,68.7,29.87,West,273,0.0,0.0,91,0.03, +RA,,0.07,WeatherDisplay:10.37,2013-08-03 05:42:00,
2013-08-03 00:47:00,71.5,68.7,29.87,West,273,0.0,0.0,91,0.03, +RA,,0.07,WeatherDisplay:10.37,2013-08-03 05:47:00,
2013-08-03 00:52:00,71.3,68.5,29.87,NNW,327,6.9,6.9,91,0.02, +RA,,0.08,WeatherDisplay:10.37,2013-08-03 05:52:00,
2013-08-03 00:57:00,70.6,67.5,29.87,NW,323,6.0,8.1,90,0.04, +RA,,0.09,WeatherDisplay:10.37,2013-08-03 05:57:00,
2013-08-03 01:02:00,69.9,66.8,29.88,WNW,301,6.5,8.1,90,0.10, +RA,,0.10,WeatherDisplay:10.37,2013-08-03 06:02:00,
2013-08-03 01:07:00,69.6,66.9,29.88,NW,308,3.4,5.8,91,0.10, +RA,,0.11,WeatherDisplay:10.37,2013-08-03 06:07:00,
2013-08-03 01:12:00,69.4,66.7,29.88,NNE,19,4.3,4.6,91,0.14, +RA,,0.15,WeatherDisplay:10.37,2013-08-03 06:12:00,
2013-08-03 01:17:00,69.3,66.6,29.88,NW,321,6.5,8.1,91,0.24, +RA,,0.25,WeatherDisplay:10.37,2013-08-03 06:17:00,
2013-08-03 01:22:00,69.1,66.7,29.88,NW,316,5.6,5.6,92,0.31, +RA,,0.33,WeatherDisplay:10.37,2013-08-03 06:22:00,
2013-08-03 01:27:00,68.9,66.5,29.88,NW,317,1.1,3.5,92,0.30, +RA,,0.37,WeatherDisplay:10.37,2013-08-03 06:27:00,
2013-08-03 01:32:00,68.9,66.5,29.88,North,355,0.7,5.8,92,0.34, +RA,,0.42,WeatherDisplay:10.37,2013-08-03 06:32:00,
2013-08-03 01:37:00,68.9,66.5,29.88,North,5,1.2,0.0,92,0.36, +RA,,0.43,WeatherDisplay:10.37,2013-08-03 06:37:00,
2013-08-03 01:42:00,68.8,66.4,29.87,North,5,0.0,0.0,92,0.43, +RA,,0.50,WeatherDisplay:10.37,2013-08-03 06:42:00,
2013-08-03 01:47:00,68.8,66.4,29.87,North,5,0.0,0.0,92,0.45, +RA,,0.52,WeatherDisplay:10.37,2013-08-03 06:47:00,
2013-08-03 01:52:00,68.8,66.4,29.87,North,5,0.0,0.0,92,0.46, +RA,,0.54,WeatherDisplay:10.37,2013-08-03 06:52:00,
2013-08-03 01:57:00,68.9,66.8,29.87,North,5,0.0,0.0,93,0.46, +RA,,0.55,WeatherDisplay:10.37,2013-08-03 06:57:00,
2013-08-03 02:03:00,68.8,66.7,29.87,North,5,0.0,0.0,93,0.46,RA,,0.56,WeatherDisplay:10.37,2013-08-03 07:03:00,
2013-08-03 02:07:00,68.8,66.7,29.88,North,5,0.0,0.0,93,0.47,RA,,0.58,WeatherDisplay:10.37,2013-08-03 07:07:00,
2013-08-03 02:13:00,68.9,66.8,29.87,North,5,0.0,0.0,93,0.47,RA,,0.62,WeatherDisplay:10.37,2013-08-03 07:13:00,
2013-08-03 02:18:00,68.8,66.7,29.87,North,5,0.0,0.0,93,0.40,RA,,0.66,WeatherDisplay:10.37,2013-08-03 07:18:00,
2013-08-03 02:23:00,68.8,66.7,29.87,North,5,0.0,0.0,93,0.36, +RA,,0.69,WeatherDisplay:10.37,2013-08-03 07:23:00,
2013-08-03 02:28:00,68.8,66.7,29.87,North,5,0.0,0.0,93,0.34, +RA,,0.71,WeatherDisplay:10.37,2013-08-03 07:28:00,
2013-08-03 02:33:00,68.8,66.7,29.87,North,5,0.0,0.0,93,0.30, +RA,,0.72,WeatherDisplay:10.37,2013-08-03 07:33:00,
2013-08-03 02:38:00,68.8,66.7,29.87,North,5,0.2,1.1,93,0.30, +RA,,0.73,WeatherDisplay:10.37,2013-08-03 07:38:00,
2013-08-03 02:43:00,68.8,66.7,29.87,North,5,0.3,1.1,93,0.23, +RA,,0.73,WeatherDisplay:10.37,2013-08-03 07:43:00,
2013-08-03 02:48:00,68.9,66.8,29.87,North,5,0.0,0.0,93,0.21, +RA,,0.73,WeatherDisplay:10.37,2013-08-03 07:48:00,
2013-08-03 02:53:00,68.9,66.8,29.88,North,5,0.0,0.0,93,0.19, +RA,,0.73,WeatherDisplay:10.37,2013-08-03 07:53:00,
2013-08-03 02:57:00,68.9,66.8,29.88,North,5,0.0,0.0,93,0.18, +RA,,0.73,WeatherDisplay:10.37,2013-08-03 07:57:00,
2013-08-03 03:02:00,68.9,66.8,29.88,North,5,0.0,0.0,93,0.17,-RA,,0.73,WeatherDisplay:10.37,2013-08-03 08:02:00,
2013-08-03 03:07:00,68.9,66.8,29.87,North,5,0.0,0.0,93,0.15,-RA,,0.73,WeatherDisplay:10.37,2013-08-03 08:07:00,
2013-08-03 03:13:00,68.9,66.8,29.88,North,5,0.0,0.0,93,0.11,-RA,,0.73,WeatherDisplay:10.37,2013-08-03 08:13:00,
2013-08-03 03:18:00,68.9,66.8,29.88,North,5,0.0,0.0,93,0.07,-RA,,0.73,WeatherDisplay:10.37,2013-08-03 08:18:00,
2013-08-03 03:23:00,68.9,66.8,29.89,North,5,0.0,0.0,93,0.05,RA,,0.74,WeatherDisplay:10.37,2013-08-03 08:23:00,
2013-08-03 03:28:00,68.9,66.8,29.88,North,5,0.0,0.0,93,0.03,RA,,0.74,WeatherDisplay:10.37,2013-08-03 08:28:00,
2013-08-03 03:33:00,68.9,66.8,29.89,North,5,0.0,0.0,93,0.03,RA,,0.75,WeatherDisplay:10.37,2013-08-03 08:33:00,
2013-08-03 03:38:00,68.9,66.8,29.88,North,5,0.0,0.0,93,0.02,RA,,0.75,WeatherDisplay:10.37,2013-08-03 08:38:00,
2013-08-03 03:43:00,68.9,66.8,29.88,North,5,0.2,1.5,93,0.02,OVC,,0.75,WeatherDisplay:10.37,2013-08-03 08:43:00,
2013-08-03 03:48:00,68.9,66.8,29.88,North,5,0.0,0.0,93,0.02,OVC,,0.75,WeatherDisplay:10.37,2013-08-03 08:48:00,
2013-08-03 03:53:00,68.9,67.1,29.88,North,5,0.4,1.5,94,0.02,OVC,,0.75,WeatherDisplay:10.37,2013-08-03 08:53:00,
2013-08-03 03:58:00,68.9,67.1,29.88,ENE,58,0.3,4.6,94,0.02,OVC,,0.75,WeatherDisplay:10.37,2013-08-03 08:58:00,
2013-08-03 04:03:00,68.8,66.7,29.88,ENE,61,3.1,5.8,93,0.02, +RA,,0.76,WeatherDisplay:10.37,2013-08-03 09:03:00,
2013-08-03 04:08:00,68.4,66.3,29.88,ENE,61,0.0,0.0,93,0.03, +RA,,0.76,WeatherDisplay:10.37,2013-08-03 09:08:00,
2013-08-03 04:13:00,68.3,66.2,29.88,ENE,61,0.0,0.0,93,0.04, +RA,,0.77,WeatherDisplay:10.37,2013-08-03 09:13:00,
2013-08-03 04:18:00,67.9,65.8,29.88,ENE,61,0.0,1.1,93,0.05, +RA,,0.78,WeatherDisplay:10.37,2013-08-03 09:18:00,
2013-08-03 04:23:00,67.6,65.5,29.88,SSE,163,0.6,3.5,93,0.04, +RA,,0.78,WeatherDisplay:10.37,2013-08-03 09:23:00,
2013-08-03 04:28:00,67.3,65.2,29.88,SSE,163,0.0,0.0,93,0.04, +RA,,0.78,WeatherDisplay:10.37,2013-08-03 09:28:00,
2013-08-03 04:33:00,67.3,65.2,29.88,SSE,163,0.0,0.0,93,0.03, +RA,,0.78,WeatherDisplay:10.37,2013-08-03 09:33:00,
2013-08-03 04:38:00,67.1,65.3,29.88,SSE,163,0.0,0.0,94,0.03, +RA,,0.78,WeatherDisplay:10.37,2013-08-03 09:38:00,
2013-08-03 04:43:00,67.1,65.3,29.88,SSE,163,0.1,0.0,94,0.03,BKN,,0.78,WeatherDisplay:10.37,2013-08-03 09:43:00,
2013-08-03 04:48:00,67.1,65.3,29.88,SSE,163,0.2,1.1,94,0.03,BKN,,0.78,WeatherDisplay:10.37,2013-08-03 09:48:00,
2013-08-03 04:53:00,67.1,65.3,29.88,SSE,163,0.0,0.0,94,0.03,BKN,,0.78,WeatherDisplay:10.37,2013-08-03 09:53:00,
2013-08-03 04:58:00,67.1,65.3,29.89,SSE,163,0.0,0.0,94,0.03,BKN,,0.78,WeatherDisplay:10.37,2013-08-03 09:58:00,
2013-08-03 05:03:00,67.1,65.3,29.89,SSE,163,0.6,1.1,94,0.03,-RA,,0.78,WeatherDisplay:10.37,2013-08-03 10:03:00,
2013-08-03 05:08:00,67.1,65.3,29.89,SSE,163,0.0,0.0,94,0.03,-RA,,0.79,WeatherDisplay:10.37,2013-08-03 10:08:00,
2013-08-03 05:13:00,67.1,65.3,29.89,SSE,163,0.0,0.0,94,0.02,-RA,,0.79,WeatherDisplay:10.37,2013-08-03 10:13:00,
2013-08-03 05:18:00,67.1,65.3,29.89,NW,315,0.3,1.1,94,0.01,-RA,,0.79,WeatherDisplay:10.37,2013-08-03 10:18:00,
2013-08-03 05:23:00,67.1,65.3,29.89,NW,315,0.0,0.0,94,0.01,BKN,,0.79,WeatherDisplay:10.37,2013-08-03 10:23:00,
2013-08-03 05:28:00,67.1,65.3,29.89,NW,315,0.0,0.0,94,0.01,BKN,,0.79,WeatherDisplay:10.37,2013-08-03 10:28:00,
2013-08-03 05:33:00,67.1,65.3,29.89,NW,315,1.0,3.5,94,0.01,BKN,,0.79,WeatherDisplay:10.37,2013-08-03 10:33:00,
2013-08-03 05:38:00,66.9,65.1,29.89,NW,315,0.8,1.5,94,0.01,BKN,,0.79,WeatherDisplay:10.37,2013-08-03 10:38:00,
2013-08-03 05:43:00,66.9,65.1,29.89,NW,315,0.0,1.1,94,0.01,SCT,,0.79,WeatherDisplay:10.37,2013-08-03 10:43:00,
2013-08-03 05:48:00,66.9,65.1,29.89,NW,315,0.0,0.0,94,0.01,SCT,,0.79,WeatherDisplay:10.37,2013-08-03 10:48:00,
2013-08-03 05:53:00,66.8,65.0,29.89,NE,46,0.0,0.0,94,0.01,SCT,,0.79,WeatherDisplay:10.37,2013-08-03 10:53:00,
2013-08-03 05:58:00,66.8,65.0,29.89,NE,46,0.0,0.0,94,0.01,SCT,,0.79,WeatherDisplay:10.37,2013-08-03 10:58:00,
2013-08-03 06:03:00,66.6,64.8,29.89,NE,46,0.0,0.0,94,0.01,SCT,,0.79,WeatherDisplay:10.37,2013-08-03 11:03:00,
2013-08-03 06:08:00,66.6,64.8,29.89,NE,46,0.0,0.0,94,0.00,SCT,,0.79,WeatherDisplay:10.37,2013-08-03 11:08:00,
2013-08-03 06:13:00,66.4,64.6,29.89,NE,46,0.0,0.0,94,0.00,CLR,,0.79,WeatherDisplay:10.37,2013-08-03 11:13:00,
2013-08-03 06:18:00,66.4,64.6,29.89,NE,46,0.0,0.0,94,0.00,CLR,,0.79,WeatherDisplay:10.37,2013-08-03 11:18:00,
2013-08-03 06:23:00,66.4,64.6,29.89,NE,46,0.0,0.0,94,0.00,CLR,,0.79,WeatherDisplay:10.37,2013-08-03 11:23:00,
2013-08-03 06:28:00,66.4,64.6,29.89,NE,46,0.0,0.0,94,0.00,CLR,,0.79,WeatherDisplay:10.37,2013-08-03 11:28:00,
2013-08-03 06:33:00,66.4,64.6,29.90,NE,46,0.0,0.0,94,0.00,CLR,,0.79,WeatherDisplay:10.37,2013-08-03 11:33:00,
2013-08-03 06:38:00,66.4,64.6,29.89,NE,46,0.0,0.0,94,0.00,CLR,,0.79,WeatherDisplay:10.37,2013-08-03 11:38:00,
2013-08-03 06:43:00,66.4,64.6,29.89,NE,46,0.0,0.0,94,0.00,SCT,,0.79,WeatherDisplay:10.37,2013-08-03 11:43:00,
2013-08-03 06:48:00,66.6,64.8,29.90,NE,46,0.0,0.0,94,0.00,SCT,,0.79,WeatherDisplay:10.37,2013-08-03 11:48:00,
2013-08-03 06:53:00,66.8,65.0,29.89,NE,46,0.0,0.0,94,0.00,SCT,,0.79,WeatherDisplay:10.37,2013-08-03 11:53:00,
2013-08-03 06:58:00,66.9,65.1,29.90,NE,46,0.0,0.0,94,0.00,SCT,,0.79,WeatherDisplay:10.37,2013-08-03 11:58:00,
2013-08-03 07:03:00,67.1,65.3,29.90,NE,46,0.0,0.0,94,0.00,SCT,,0.79,WeatherDisplay:10.37,2013-08-03 12:03:00,
2013-08-03 07:08:00,67.4,65.6,29.90,NE,46,0.0,0.0,94,0.00,SCT,,0.79,WeatherDisplay:10.37,2013-08-03 12:08:00,
2013-08-03 07:13:00,67.6,66.1,29.90,NE,46,0.0,0.0,95,0.00,SCT,,0.79,WeatherDisplay:10.37,2013-08-03 12:13:00,
2013-08-03 07:18:00,67.9,66.4,29.90,NE,46,0.0,0.0,95,0.00,SCT,,0.79,WeatherDisplay:10.37,2013-08-03 12:18:00,
2013-08-03 07:23:00,67.9,66.1,29.91,NE,46,0.0,0.0,94,0.00,CLR,,0.79,WeatherDisplay:10.37,2013-08-03 12:23:00,
2013-08-03 07:28:00,67.9,66.1,29.91,NE,46,0.0,0.0,94,0.00,CLR,,0.79,WeatherDisplay:10.37,2013-08-03 12:28:00,
2013-08-03 07:33:00,67.9,66.1,29.92,NE,46,0.0,0.0,94,0.00,CLR,,0.79,WeatherDisplay:10.37,2013-08-03 12:33:00,
2013-08-03 07:38:00,68.1,66.3,29.92,NE,46,0.0,0.0,94,0.00,CLR,,0.79,WeatherDisplay:10.37,2013-08-03 12:38:00,
2013-08-03 07:43:00,68.3,66.5,29.92,NE,46,0.0,0.0,94,0.00,SCT,,0.79,WeatherDisplay:10.37,2013-08-03 12:43:00,
2013-08-03 07:48:00,68.3,66.5,29.92,NE,46,1.6,3.5,94,0.00,SCT,,0.79,WeatherDisplay:10.37,2013-08-03 12:48:00,
2013-08-03 07:53:00,68.4,66.6,29.92,NNE,32,0.0,1.1,94,0.00,SCT,,0.79,WeatherDisplay:10.37,2013-08-03 12:53:00,
2013-08-03 07:58:00,68.6,66.8,29.92,NNE,25,1.3,1.3,94,0.00,SCT,,0.79,WeatherDisplay:10.37,2013-08-03 12:58:00,
2013-08-03 08:03:00,68.8,67.0,29.92,NNW,346,0.0,4.6,94,0.00,CLR,,0.79,WeatherDisplay:10.37,2013-08-03 13:03:00,
2013-08-03 08:08:00,68.9,67.1,29.92,North,351,0.7,1.5,94,0.00,CLR,,0.79,WeatherDisplay:10.37,2013-08-03 13:08:00,
2013-08-03 08:13:00,69.1,67.3,29.92,North,351,0.2,3.5,94,0.00,CLR,,0.79,WeatherDisplay:10.37,2013-08-03 13:13:00,
2013-08-03 08:18:00,69.3,67.5,29.92,North,351,0.5,3.0,94,0.00,CLR,,0.79,WeatherDisplay:10.37,2013-08-03 13:18:00,
2013-08-03 08:23:00,69.4,67.3,29.92,NW,322,0.4,1.5,93,0.00,CLR,,0.79,WeatherDisplay:10.37,2013-08-03 13:23:00,
2013-08-03 08:28:00,69.6,67.5,29.92,NNW,342,4.1,4.1,93,0.00,CLR,,0.79,WeatherDisplay:10.37,2013-08-03 13:28:00,
2013-08-03 08:33:00,69.8,67.7,29.92,NW,312,4.5,4.6,93,0.00,CLR,,0.79,WeatherDisplay:10.37,2013-08-03 13:33:00,
2013-08-03 08:38:00,69.9,67.8,29.92,NW,312,0.3,3.0,93,0.00,CLR,,0.79,WeatherDisplay:10.37,2013-08-03 13:38:00,
2013-08-03 08:43:00,70.1,68.0,29.92,WNW,298,2.2,5.8,93,0.00,CLR,,0.79,WeatherDisplay:10.37,2013-08-03 13:43:00,
2013-08-03 08:49:00,70.4,68.3,29.92,NNW,329,3.3,8.1,93,0.00,CLR,,0.79,WeatherDisplay:10.37,2013-08-03 13:49:00,
2013-08-03 08:54:00,70.4,68.0,29.92,NW,321,2.3,4.6,92,0.00,CLR,,0.79,WeatherDisplay:10.37,2013-08-03 13:54:00,
2013-08-03 08:59:00,70.4,67.6,29.92,NNW,341,2.6,4.6,91,0.00,CLR,,0.79,WeatherDisplay:10.37,2013-08-03 13:59:00,
2013-08-03 09:03:00,70.6,67.8,29.92,NW,315,1.5,4.6,91,0.00,SCT,,0.79,WeatherDisplay:10.37,2013-08-03 14:03:00,
2013-08-03 09:08:00,70.6,67.5,29.92,NNW,331,3.4,3.5,90,0.00,SCT,,0.79,WeatherDisplay:10.37,2013-08-03 14:08:00,
2013-08-03 09:14:00,70.8,67.7,29.92,West,271,0.3,1.5,90,0.00,SCT,,0.79,WeatherDisplay:10.37,2013-08-03 14:14:00,
2013-08-03 09:19:00,70.9,67.8,29.92,North,5,6.2,9.2,90,0.00,SCT,,0.79,WeatherDisplay:10.37,2013-08-03 14:19:00,
2013-08-03 09:24:00,71.1,68.0,29.92,NNW,333,3.3,4.6,90,0.00,SCT,,0.79,WeatherDisplay:10.37,2013-08-03 14:24:00,
2013-08-03 09:28:00,71.5,68.1,29.92,NW,306,0.8,3.5,89,0.00,SCT,,0.79,WeatherDisplay:10.37,2013-08-03 14:28:00,
2013-08-03 09:34:00,71.8,67.7,29.92,NW,325,10.4,10.4,87,0.00,SCT,,0.79,WeatherDisplay:10.37,2013-08-03 14:34:00,
2013-08-03 09:39:00,71.6,67.5,29.92,NNW,348,7.2,8.1,87,0.00,SCT,,0.79,WeatherDisplay:10.37,2013-08-03 14:39:00,
2013-08-03 09:44:00,71.8,67.4,29.92,NE,47,9.8,15.0,86,0.00,CLR,,0.79,WeatherDisplay:10.37,2013-08-03 14:44:00,
2013-08-03 09:49:00,71.8,67.4,29.92,WNW,292,5.1,9.2,86,0.00,CLR,,0.79,WeatherDisplay:10.37,2013-08-03 14:49:00,
2013-08-03 09:53:00,72.1,68.3,29.92,West,274,2.7,6.0,88,0.00,CLR,,0.79,WeatherDisplay:10.37,2013-08-03 14:53:00,
2013-08-03 09:59:00,72.1,67.3,29.93,NW,308,8.4,10.4,85,0.00,CLR,,0.79,WeatherDisplay:10.37,2013-08-03 14:59:00,
2013-08-03 10:04:00,72.1,67.3,29.93,NNE,20,4.5,5.8,85,0.00,SCT,,0.79,WeatherDisplay:10.37,2013-08-03 15:04:00,
2013-08-03 10:09:00,72.5,68.1,29.93,WNW,297,6.5,8.1,86,0.00,SCT,,0.79,WeatherDisplay:10.37,2013-08-03 15:09:00,
2013-08-03 10:14:00,72.8,67.3,29.93,NW,320,6.4,9.2,83,0.00,SCT,,0.79,WeatherDisplay:10.37,2013-08-03 15:14:00,
2013-08-03 10:19:00,73.0,67.2,29.93,North,5,7.5,8.1,82,0.00,SCT,,0.79,WeatherDisplay:10.37,2013-08-03 15:19:00,
2013-08-03 10:24:00,73.5,67.7,29.94,NW,311,6.7,8.1,82,0.00,SCT,,0.79,WeatherDisplay:10.37,2013-08-03 15:24:00,
2013-08-03 10:29:00,74.2,67.6,29.94,NNE,22,7.8,9.0,80,0.00,SCT,,0.79,WeatherDisplay:10.37,2013-08-03 15:29:00,
2013-08-03 10:34:00,74.6,67.7,29.93,NNE,30,6.8,6.8,79,0.00,SCT,,0.79,WeatherDisplay:10.37,2013-08-03 15:34:00,
2013-08-03 10:39:00,75.1,67.8,29.94,NNE,24,5.0,8.1,78,0.00,SCT,,0.79,WeatherDisplay:10.37,2013-08-03 15:39:00,
2013-08-03 10:44:00,75.3,67.6,29.94,North,9,8.5,9.2,77,0.00,SCT,,0.79,WeatherDisplay:10.37,2013-08-03 15:44:00,
2013-08-03 10:49:00,75.4,66.9,29.94,NW,321,5.6,9.2,75,0.00,SCT,,0.79,WeatherDisplay:10.37,2013-08-03 15:49:00,
2013-08-03 10:54:00,75.4,67.3,29.94,NNE,13,2.0,3.5,76,0.00,SCT,,0.79,WeatherDisplay:10.37,2013-08-03 15:54:00,
2013-08-03 10:59:00,75.8,66.9,29.95,NNW,329,6.1,8.1,74,0.00,SCT,,0.79,WeatherDisplay:10.37,2013-08-03 15:59:00,
2013-08-03 11:04:00,76.0,67.1,29.95,NNW,330,8.5,9.0,74,0.00,SCT,,0.79,WeatherDisplay:10.37,2013-08-03 16:04:00,
2013-08-03 11:09:00,76.5,67.2,29.95,NW,321,4.2,9.2,73,0.00,SCT,,0.79,WeatherDisplay:10.37,2013-08-03 16:09:00,
2013-08-03 11:14:00,77.4,67.3,29.95,North,349,11.7,11.7,71,0.00,SCT,,0.79,WeatherDisplay:10.37,2013-08-03 16:14:00,
2013-08-03 11:19:00,77.4,66.4,29.95,NW,326,7.2,7.2,69,0.00,SCT,,0.79,WeatherDisplay:10.37,2013-08-03 16:19:00,
2013-08-03 11:24:00,77.4,65.6,29.95,NE,40,8.3,8.3,67,0.00,SCT,,0.79,WeatherDisplay:10.37,2013-08-03 16:24:00,
2013-08-03 11:29:00,77.4,66.4,29.95,NW,305,5.1,6.0,69,0.00,SCT,,0.79,WeatherDisplay:10.37,2013-08-03 16:29:00,
2013-08-03 11:34:00,77.9,66.9,29.95,WNW,296,2.6,4.6,69,0.00,SCT,,0.79,WeatherDisplay:10.37,2013-08-03 16:34:00,
2013-08-03 11:39:00,77.9,66.5,29.95,West,279,4.2,8.1,68,0.00,SCT,,0.79,WeatherDisplay:10.37,2013-08-03 16:39:00,
2013-08-03 11:44:00,77.9,66.1,29.95,WNW,291,2.3,3.5,67,0.00,CLR,,0.79,WeatherDisplay:10.37,2013-08-03 16:44:00,
2013-08-03 11:49:00,78.5,66.6,29.95,North,355,6.5,7.5,67,0.00,CLR,,0.79,WeatherDisplay:10.37,2013-08-03 16:49:00,
2013-08-03 11:54:00,78.1,65.8,29.95,North,5,6.4,8.1,66,0.00,CLR,,0.79,WeatherDisplay:10.37,2013-08-03 16:54:00,
2013-08-03 11:59:00,77.9,65.6,29.95,North,355,8.8,10.5,66,0.00,CLR,,0.79,WeatherDisplay:10.37,2013-08-03 16:59:00,
2013-08-03 12:04:00,78.1,64.9,29.96,NW,326,4.7,4.7,64,0.00,SCT,,0.79,WeatherDisplay:10.37,2013-08-03 17:04:00,
2013-08-03 12:09:00,78.5,65.8,29.95,NW,325,6.0,6.0,65,0.00,SCT,,0.79,WeatherDisplay:10.37,2013-08-03 17:09:00,
2013-08-03 12:14:00,78.6,65.8,29.96,NW,311,4.6,8.1,65,0.00,SCT,,0.79,WeatherDisplay:10.37,2013-08-03 17:14:00,
2013-08-03 12:19:00,78.8,65.1,29.96,NNW,332,4.0,9.2,63,0.00,SCT,,0.79,WeatherDisplay:10.37,2013-08-03 17:19:00,
2013-08-03 12:24:00,78.8,66.5,29.95,West,279,3.0,5.8,66,0.00,SCT,,0.79,WeatherDisplay:10.37,2013-08-03 17:24:00,
2013-08-03 12:29:00,79.4,65.2,29.95,WNW,302,1.1,1.5,62,0.00,SCT,,0.79,WeatherDisplay:10.37,2013-08-03 17:29:00,
2013-08-03 12:34:00,79.8,65.2,29.95,NNE,30,7.9,10.5,61,0.00,SCT,,0.79,WeatherDisplay:10.37,2013-08-03 17:34:00,
2013-08-03 12:39:00,79.8,64.7,29.95,NW,325,1.1,4.5,60,0.00,SCT,,0.79,WeatherDisplay:10.37,2013-08-03 17:39:00,
2013-08-03 12:44:00,79.9,64.3,29.96,WNW,291,5.7,8.1,59,0.00,SCT,,0.79,WeatherDisplay:10.37,2013-08-03 17:44:00,
2013-08-03 12:49:00,79.9,64.3,29.95,NNW,327,9.4,9.4,59,0.00,SCT,,0.79,WeatherDisplay:10.37,2013-08-03 17:49:00,
2013-08-03 12:54:00,79.9,63.8,29.95,NW,315,1.7,9.2,58,0.00,SCT,,0.79,WeatherDisplay:10.37,2013-08-03 17:54:00,
2013-08-03 12:59:00,79.9,64.3,29.95,NW,308,5.7,9.2,59,0.00,SCT,,0.79,WeatherDisplay:10.37,2013-08-03 17:59:00,
2013-08-03 13:04:00,80.3,65.1,29.95,West,266,2.7,5.8,60,0.00,SCT,,0.79,WeatherDisplay:10.37,2013-08-03 18:04:00,
2013-08-03 13:09:00,80.5,63.4,29.95,NNW,327,9.9,10.4,56,0.00,SCT,,0.79,WeatherDisplay:10.37,2013-08-03 18:09:00,
2013-08-03 13:14:00,80.5,63.9,29.96,NW,318,12.3,12.3,57,0.00,SCT,,0.79,WeatherDisplay:10.37,2013-08-03 18:14:00,
2013-08-03 13:19:00,80.5,63.9,29.95,NW,325,4.7,5.8,57,0.00,SCT,,0.79,WeatherDisplay:10.37,2013-08-03 18:19:00,
2013-08-03 13:24:00,81.1,64.9,29.95,SE,125,3.0,4.6,58,0.00,SCT,,0.79,WeatherDisplay:10.37,2013-08-03 18:24:00,
2013-08-03 13:29:00,80.9,65.2,29.95,NW,313,2.3,9.2,59,0.00,SCT,,0.79,WeatherDisplay:10.37,2013-08-03 18:29:00,
2013-08-03 13:34:00,80.9,63.2,29.95,WSW,254,1.9,8.1,55,0.00,SCT,,0.79,WeatherDisplay:10.37,2013-08-03 18:34:00,
2013-08-03 13:39:00,81.2,65.0,29.95,West,264,3.7,5.8,58,0.00,SCT,,0.79,WeatherDisplay:10.37,2013-08-03 18:39:00,
2013-08-03 13:44:00,81.8,65.1,29.95,West,273,1.2,5.8,57,0.00,SCT,,0.79,WeatherDisplay:10.37,2013-08-03 18:44:00,
2013-08-03 13:49:00,82.0,63.7,29.95,NW,325,10.0,10.4,54,0.00,SCT,,0.79,WeatherDisplay:10.37,2013-08-03 18:49:00,
2013-08-03 13:54:00,81.6,64.4,29.95,NW,307,9.5,11.5,56,0.00,SCT,,0.79,WeatherDisplay:10.37,2013-08-03 18:54:00,
2013-08-03 13:59:00,81.6,64.4,29.95,North,5,8.0,8.1,56,0.00,SCT,,0.79,WeatherDisplay:10.37,2013-08-03 18:59:00,
2013-08-03 14:04:00,81.8,62.5,29.95,North,355,9.9,9.9,52,0.00,SCT,,0.79,WeatherDisplay:10.37,2013-08-03 19:04:00,
2013-08-03 14:09:00,81.4,63.7,29.95,ENE,57,8.4,9.2,55,0.00,SCT,,0.79,WeatherDisplay:10.37,2013-08-03 19:09:00,
2013-08-03 14:14:00,81.1,63.9,29.95,NNE,28,5.4,8.1,56,0.00,SCT,,0.79,WeatherDisplay:10.37,2013-08-03 19:14:00,
2013-08-03 14:19:00,81.2,64.0,29.95,NW,319,12.0,12.0,56,0.00,SCT,,0.79,WeatherDisplay:10.37,2013-08-03 19:19:00,
2013-08-03 14:24:00,81.1,63.9,29.95,NNW,328,9.3,9.3,56,0.00,SCT,,0.79,WeatherDisplay:10.37,2013-08-03 19:24:00,
2013-08-03 14:29:00,80.9,63.2,29.95,NW,310,6.9,6.9,55,0.00,SCT,,0.79,WeatherDisplay:10.37,2013-08-03 19:29:00,
2013-08-03 14:34:00,81.4,63.2,29.95,North,360,10.7,10.7,54,0.00,SCT,,0.79,WeatherDisplay:10.37,2013-08-03 19:34:00,
2013-08-03 14:39:00,81.6,63.3,29.95,North,355,2.8,8.1,54,0.00,SCT,,0.79,WeatherDisplay:10.37,2013-08-03 19:39:00,
2013-08-03 14:44:00,81.6,62.3,29.95,North,9,8.6,10.4,52,0.00,SCT,,0.79,WeatherDisplay:10.37,2013-08-03 19:44:00,
2013-08-03 14:49:00,81.6,62.8,29.95,NNW,338,8.2,8.2,53,0.00,SCT,,0.79,WeatherDisplay:10.37,2013-08-03 19:49:00,
2013-08-03 14:54:00,81.6,62.3,29.95,North,11,9.0,10.4,52,0.00,SCT,,0.79,WeatherDisplay:10.37,2013-08-03 19:54:00,
2013-08-03 14:59:00,82.0,63.2,29.95,NNE,14,8.1,15.0,53,0.00,SCT,,0.79,WeatherDisplay:10.37,2013-08-03 19:59:00,
2013-08-03 15:05:00,82.0,61.5,29.95,NW,313,11.5,16.5,50,0.00,SCT,,0.79,WeatherDisplay:10.37,2013-08-03 20:05:00,
2013-08-03 15:10:00,81.6,61.7,29.95,North,350,7.5,10.5,51,0.00,SCT,,0.79,WeatherDisplay:10.37,2013-08-03 20:10:00,
2013-08-03 15:15:00,81.2,60.8,29.95,North,350,8.8,13.8,50,0.00,SCT,,0.79,WeatherDisplay:10.37,2013-08-03 20:15:00,
2013-08-03 15:19:00,81.4,59.8,29.95,WNW,286,4.8,5.8,48,0.00,SCT,,0.79,WeatherDisplay:10.37,2013-08-03 20:19:00,
2013-08-03 15:25:00,81.8,61.3,29.95,WNW,286,4.6,9.2,50,0.00,SCT,,0.79,WeatherDisplay:10.37,2013-08-03 20:25:00,
2013-08-03 15:29:00,81.6,61.2,29.94,WNW,302,8.2,8.2,50,0.00,SCT,,0.79,WeatherDisplay:10.37,2013-08-03 20:29:00,
2013-08-03 15:35:00,81.7,61.2,29.94,NNW,339,3.0,11.0,50,0.00,SCT,,0.79,WeatherDisplay:10.37,2013-08-03 20:35:00,
2013-08-03 15:40:00,81.8,59.0,29.94,North,357,10.0,17.0,46,0.00,SCT,,0.79,WeatherDisplay:10.37,2013-08-03 20:40:00,
2013-08-03 15:45:00,81.8,59.0,29.94,NNW,335,7.4,8.1,46,0.00,SCT,,0.79,WeatherDisplay:10.37,2013-08-03 20:45:00,
2013-08-03 15:49:00,82.0,59.8,29.94,NNW,330,7.0,11.0,47,0.00,SCT,,0.79,WeatherDisplay:10.37,2013-08-03 20:49:00,
2013-08-03 15:55:00,81.8,60.2,29.94,NW,324,7.0,15.0,48,0.00,SCT,,0.79,WeatherDisplay:10.37,2013-08-03 20:55:00,
2013-08-03 15:59:00,81.8,60.2,29.95,NNW,329,9.0,11.0,48,0.00,SCT,,0.79,WeatherDisplay:10.37,2013-08-03 20:59:00,
2013-08-03 16:05:00,81.8,60.8,29.95,NNW,335,7.0,12.0,49,0.00,SCT,,0.79,WeatherDisplay:10.37,2013-08-03 21:05:00,
2013-08-03 16:10:00,81.5,61.1,29.95,NNW,333,10.0,14.0,50,0.00,SCT,,0.79,WeatherDisplay:10.37,2013-08-03 21:10:00,
2013-08-03 16:15:00,81.4,60.4,29.95,NNW,347,9.0,12.0,49,0.00,SCT,,0.79,WeatherDisplay:10.37,2013-08-03 21:15:00,
2013-08-03 16:20:00,81.6,61.7,29.95,WNW,284,10.5,10.5,51,0.00,SCT,,0.79,WeatherDisplay:10.37,2013-08-03 21:20:00,
2013-08-03 16:25:00,81.4,61.0,29.95,North,355,6.9,8.1,50,0.00,SCT,,0.79,WeatherDisplay:10.37,2013-08-03 21:25:00,
2013-08-03 16:30:00,81.6,60.6,29.95,NNW,329,14.0,14.0,49,0.00,SCT,,0.79,WeatherDisplay:10.37,2013-08-03 21:30:00,
2013-08-03 16:34:00,81.4,61.0,29.95,NW,323,3.0,9.0,50,0.00,SCT,,0.79,WeatherDisplay:10.37,2013-08-03 21:34:00,
2013-08-03 16:40:00,81.4,59.8,29.95,NNW,327,12.0,18.0,48,0.00,SCT,,0.79,WeatherDisplay:10.37,2013-08-03 21:40:00,
2013-08-03 16:45:00,81.1,59.6,29.95,NNW,331,11.6,11.6,48,0.00,SCT,,0.79,WeatherDisplay:10.37,2013-08-03 21:45:00,
2013-08-03 16:49:00,80.9,59.9,29.95,NW,319,7.5,8.1,49,0.00,SCT,,0.79,WeatherDisplay:10.37,2013-08-03 21:49:00,
2013-08-03 16:55:00,81.1,60.1,29.95,NNW,344,9.2,10.4,49,0.00,SCT,,0.79,WeatherDisplay:10.37,2013-08-03 21:55:00,
2013-08-03 17:00:00,81.1,60.7,29.95,NNW,344,7.9,9.2,50,0.00,SCT,,0.79,WeatherDisplay:10.37,2013-08-03 22:00:00,
2013-08-03 17:05:00,80.9,59.9,29.95,WNW,289,10.2,15.0,49,0.00,SCT,,0.79,WeatherDisplay:10.37,2013-08-03 22:05:00,
2013-08-03 17:10:00,80.7,59.2,29.95,NW,325,12.8,15.0,48,0.00,SCT,,0.79,WeatherDisplay:10.37,2013-08-03 22:10:00,
2013-08-03 17:15:00,80.7,60.3,29.95,North,9,10.6,13.8,50,0.00,SCT,,0.79,WeatherDisplay:10.37,2013-08-03 22:15:00,
2013-08-03 17:20:00,80.9,60.5,29.95,NW,319,5.0,5.8,50,0.00,SCT,,0.79,WeatherDisplay:10.37,2013-08-03 22:20:00,
2013-08-03 17:24:00,81.1,60.7,29.95,NW,321,6.1,10.5,50,0.00,SCT,,0.79,WeatherDisplay:10.37,2013-08-03 22:24:00,
2013-08-03 17:30:00,80.7,60.3,29.95,NW,314,11.2,11.2,50,0.00,SCT,,0.79,WeatherDisplay:10.37,2013-08-03 22:30:00,
2013-08-03 17:35:00,80.3,60.0,29.95,NW,304,12.1,12.1,50,0.00,SCT,,0.79,WeatherDisplay:10.37,2013-08-03 22:35:00,
2013-08-03 17:40:00,80.1,59.8,29.95,WNW,294,7.5,9.2,50,0.00,SCT,,0.79,WeatherDisplay:10.37,2013-08-03 22:40:00,
2013-08-03 17:45:00,80.1,59.8,29.95,West,281,9.8,9.8,50,0.00,SCT,,0.79,WeatherDisplay:10.37,2013-08-03 22:45:00,
2013-08-03 17:50:00,79.9,59.6,29.95,NNW,332,8.4,9.2,50,0.00,SCT,,0.79,WeatherDisplay:10.37,2013-08-03 22:50:00,
2013-08-03 17:55:00,79.9,59.0,29.95,NE,54,12.1,13.8,49,0.00,SCT,,0.79,WeatherDisplay:10.37,2013-08-03 22:55:00,
2013-08-03 18:00:00,79.8,58.9,29.95,NNW,331,7.5,8.1,49,0.00,SCT,,0.79,WeatherDisplay:10.37,2013-08-03 23:00:00,
2013-08-03 18:05:00,79.8,59.5,29.95,NW,307,7.7,7.7,50,0.00,SCT,,0.79,WeatherDisplay:10.37,2013-08-03 23:05:00,
2013-08-03 18:10:00,79.8,60.1,29.95,NW,305,3.1,9.0,51,0.00,SCT,,0.79,WeatherDisplay:10.37,2013-08-03 23:10:00,
2013-08-03 18:15:00,79.8,59.5,29.96,NNW,344,8.1,10.4,50,0.00,SCT,,0.79,WeatherDisplay:10.37,2013-08-03 23:15:00,
2013-08-03 18:20:00,79.6,59.3,29.96,NNW,335,5.0,5.8,50,0.00,SCT,,0.79,WeatherDisplay:10.37,2013-08-03 23:20:00,
2013-08-03 18:25:00,79.4,59.7,29.95,North,350,4.8,8.1,51,0.00,SCT,,0.79,WeatherDisplay:10.37,2013-08-03 23:25:00,
2013-08-03 18:30:00,79.4,59.7,29.96,NW,309,7.9,10.4,51,0.00,SCT,,0.79,WeatherDisplay:10.37,2013-08-03 23:30:00,
2013-08-03 18:35:00,79.2,60.1,29.96,NW,323,8.4,8.4,52,0.00,SCT,,0.79,WeatherDisplay:10.37,2013-08-03 23:35:00,
2013-08-03 18:40:00,78.8,60.7,29.96,NW,310,6.2,8.1,54,0.00,SCT,,0.79,WeatherDisplay:10.37,2013-08-03 23:40:00,
2013-08-03 18:45:00,78.6,61.1,29.96,NNW,341,7.5,8.1,55,0.00,SCT,,0.79,WeatherDisplay:10.37,2013-08-03 23:45:00,
2013-08-03 18:50:00,78.3,61.8,29.96,NNW,340,6.1,7.5,57,0.00,SCT,,0.79,WeatherDisplay:10.37,2013-08-03 23:50:00,
2013-08-03 18:55:00,77.9,61.9,29.96,North,360,9.7,10.4,58,0.00,SCT,,0.79,WeatherDisplay:10.37,2013-08-03 23:55:00,
2013-08-03 19:00:00,77.6,61.7,29.97,NE,36,10.1,10.4,58,0.00,SCT,,0.79,WeatherDisplay:10.37,2013-08-04 00:00:00,
2013-08-03 19:05:00,77.0,61.6,29.97,NNE,24,7.0,8.1,59,0.00,CLR,,0.79,WeatherDisplay:10.37,2013-08-04 00:05:00,
2013-08-03 19:10:00,76.5,61.6,29.97,NE,44,6.4,8.1,60,0.00,CLR,,0.79,WeatherDisplay:10.37,2013-08-04 00:10:00,
2013-08-03 19:15:00,76.3,61.9,29.97,NNE,32,6.5,8.1,61,0.00,CLR,,0.79,WeatherDisplay:10.37,2013-08-04 00:15:00,
2013-08-03 19:20:00,76.0,61.6,29.97,WNW,292,0.7,3.5,61,0.00,CLR,,0.79,WeatherDisplay:10.37,2013-08-04 00:20:00,
2013-08-03 19:25:00,75.6,61.2,29.97,NNW,348,2.7,4.6,61,0.00,CLR,,0.79,WeatherDisplay:10.37,2013-08-04 00:25:00,
2013-08-03 19:30:00,75.3,60.9,29.97,NE,52,5.3,5.8,61,0.00,CLR,,0.79,WeatherDisplay:10.37,2013-08-04 00:30:00,
2013-08-03 19:35:00,75.1,60.7,29.97,North,5,3.1,4.6,61,0.00,CLR,,0.79,WeatherDisplay:10.37,2013-08-04 00:35:00,
2013-08-03 19:40:00,74.7,60.4,29.97,NNE,16,7.5,8.1,61,0.00,CLR,,0.79,WeatherDisplay:10.37,2013-08-04 00:40:00,
2013-08-03 19:45:00,74.4,59.6,29.97,NNW,343,9.6,10.4,60,0.00,CLR,,0.79,WeatherDisplay:10.37,2013-08-04 00:45:00,
2013-08-03 19:50:00,74.2,59.4,29.97,NNE,25,6.2,8.1,60,0.00,CLR,,0.79,WeatherDisplay:10.37,2013-08-04 00:50:00,
2013-08-03 19:55:00,73.9,59.1,29.97,NE,50,10.7,11.5,60,0.00,CLR,,0.79,WeatherDisplay:10.37,2013-08-04 00:55:00,
2013-08-03 20:00:00,73.5,58.8,29.98,North,5,4.1,5.8,60,0.00,CLR,,0.79,WeatherDisplay:10.37,2013-08-04 01:00:00,
2013-08-03 20:05:00,73.3,58.6,29.98,NE,41,7.1,8.1,60,0.00,CLR,,0.79,WeatherDisplay:10.37,2013-08-04 01:05:00,
2013-08-03 20:10:00,73.0,58.3,29.99,NNE,13,5.3,7.5,60,0.00,CLR,,0.79,WeatherDisplay:10.37,2013-08-04 01:10:00,
2013-08-03 20:15:00,72.8,58.6,29.99,NNE,32,5.1,6.0,61,0.00,CLR,,0.79,WeatherDisplay:10.37,2013-08-04 01:15:00,
2013-08-03 20:20:00,72.5,58.3,29.99,NNE,31,8.5,10.4,61,0.00,CLR,,0.79,WeatherDisplay:10.37,2013-08-04 01:20:00,
2013-08-03 20:25:00,72.1,58.4,29.99,North,5,3.7,13.5,62,0.00,CLR,,0.79,WeatherDisplay:10.37,2013-08-04 01:25:00,
2013-08-03 20:30:00,71.8,57.6,29.99,North,5,4.0,5.8,61,0.00,CLR,,0.79,WeatherDisplay:10.37,2013-08-04 01:30:00,
2013-08-03 20:35:00,71.6,57.4,29.99,NNW,327,3.3,3.5,61,0.00,CLR,,0.79,WeatherDisplay:10.37,2013-08-04 01:35:00,
2013-08-03 20:40:00,71.5,57.8,30.00,NE,46,4.4,4.6,62,0.00,CLR,,0.79,WeatherDisplay:10.37,2013-08-04 01:40:00,
2013-08-03 20:45:00,71.1,57.9,29.99,North,360,6.4,6.4,63,0.00,CLR,,0.79,WeatherDisplay:10.37,2013-08-04 01:45:00,
2013-08-03 20:50:00,70.8,57.6,30.00,NNE,18,2.5,4.6,63,0.00,CLR,,0.79,WeatherDisplay:10.37,2013-08-04 01:50:00,
2013-08-03 20:55:00,70.6,57.8,30.00,NE,38,0.7,4.6,64,0.00,CLR,,0.79,WeatherDisplay:10.37,2013-08-04 01:55:00,
2013-08-03 21:00:00,70.3,57.5,30.00,North,5,1.2,3.5,64,0.00,CLR,,0.79,WeatherDisplay:10.37,2013-08-04 02:00:00,
2013-08-03 21:05:00,69.9,57.6,30.00,North,5,0.8,4.6,65,0.00,CLR,,0.79,WeatherDisplay:10.37,2013-08-04 02:05:00,
2013-08-03 21:10:00,69.8,57.5,30.00,NNE,15,2.2,4.6,65,0.00,CLR,,0.79,WeatherDisplay:10.37,2013-08-04 02:10:00,
2013-08-03 21:15:00,69.4,57.5,30.00,North,360,0.0,1.1,66,0.00,CLR,,0.79,WeatherDisplay:10.37,2013-08-04 02:15:00,
2013-08-03 21:20:00,69.3,57.5,30.00,North,360,0.0,0.0,66,0.00,CLR,,0.79,WeatherDisplay:10.37,2013-08-04 02:20:00,
2013-08-03 21:25:00,68.9,57.5,30.00,North,360,0.0,0.0,67,0.00,CLR,,0.79,WeatherDisplay:10.37,2013-08-04 02:25:00,
2013-08-03 21:30:00,68.8,57.4,30.01,North,360,0.0,0.0,67,0.00,CLR,,0.79,WeatherDisplay:10.37,2013-08-04 02:30:00,
2013-08-03 21:35:00,68.4,57.4,30.01,North,360,0.0,0.0,68,0.00,CLR,,0.79,WeatherDisplay:10.37,2013-08-04 02:35:00,
2013-08-03 21:40:00,68.1,57.5,30.01,North,360,0.0,0.0,69,0.00,CLR,,0.79,WeatherDisplay:10.37,2013-08-04 02:40:00,
2013-08-03 21:45:00,67.8,57.7,30.01,North,360,0.0,0.0,70,0.00,CLR,,0.79,WeatherDisplay:10.37,2013-08-04 02:45:00,
2013-08-03 21:50:00,67.4,57.7,30.01,North,360,0.0,0.0,71,0.00,CLR,,0.79,WeatherDisplay:10.37,2013-08-04 02:50:00,
2013-08-03 21:55:00,66.9,57.6,30.01,North,360,0.0,0.0,72,0.00,CLR,,0.79,WeatherDisplay:10.37,2013-08-04 02:55:00,
2013-08-03 22:00:00,66.4,57.5,30.02,North,360,0.0,0.0,73,0.00,CLR,,0.79,WeatherDisplay:10.37,2013-08-04 03:00:00,
2013-08-03 22:05:00,66.1,57.6,30.02,North,360,0.0,0.0,74,0.00,CLR,,0.79,WeatherDisplay:10.37,2013-08-04 03:05:00,
2013-08-03 22:10:00,65.8,57.3,30.02,North,360,0.0,0.0,74,0.00,CLR,,0.79,WeatherDisplay:10.37,2013-08-04 03:10:00,
2013-08-03 22:15:00,65.5,57.4,30.02,North,360,0.0,0.0,75,0.00,CLR,,0.79,WeatherDisplay:10.37,2013-08-04 03:15:00,
2013-08-03 22:21:00,65.3,57.5,30.02,North,360,0.0,0.0,76,0.00,CLR,,0.79,WeatherDisplay:10.37,2013-08-04 03:21:00,
2013-08-03 22:25:00,65.0,57.6,30.03,North,360,0.0,0.0,77,0.00,CLR,,0.79,WeatherDisplay:10.37,2013-08-04 03:25:00,
2013-08-03 22:31:00,64.8,57.8,30.03,North,360,0.0,0.0,78,0.00,CLR,,0.79,WeatherDisplay:10.37,2013-08-04 03:31:00,
2013-08-03 22:36:00,64.7,57.7,30.03,North,360,0.0,0.0,78,0.00,CLR,,0.79,WeatherDisplay:10.37,2013-08-04 03:36:00,
2013-08-03 22:40:00,64.5,57.8,30.03,North,360,0.0,0.0,79,0.00,CLR,,0.79,WeatherDisplay:10.37,2013-08-04 03:40:00,
2013-08-03 22:46:00,64.3,57.6,30.03,North,360,0.0,0.0,79,0.00,CLR,,0.79,WeatherDisplay:10.37,2013-08-04 03:46:00,
2013-08-03 22:51:00,64.2,57.5,30.03,North,360,0.0,0.0,79,0.00,CLR,,0.79,WeatherDisplay:10.37,2013-08-04 03:51:00,
2013-08-03 22:55:00,64.0,57.4,30.03,North,360,0.0,0.0,79,0.00,CLR,,0.79,WeatherDisplay:10.37,2013-08-04 03:55:00,
2013-08-03 23:00:00,63.7,57.4,30.03,North,360,0.0,0.0,80,0.00,CLR,,0.79,WeatherDisplay:10.37,2013-08-04 04:00:00,
2013-08-03 23:01:00,63.7,57.4,30.03,North,360,0.0,0.0,80,0.00,CLR,,0.79,WeatherDisplay:10.37,2013-08-04 04:01:00,
2013-08-03 23:06:00,63.5,57.2,30.03,North,360,0.0,0.0,80,0.00,CLR,,0.79,WeatherDisplay:10.37,2013-08-04 04:06:00,
2013-08-03 23:11:00,63.4,57.1,30.03,North,360,0.0,0.0,80,0.00,CLR,,0.79,WeatherDisplay:10.37,2013-08-04 04:11:00,
2013-08-03 23:17:00,63.2,57.3,30.03,North,360,0.0,0.0,81,0.00,CLR,,0.79,WeatherDisplay:10.37,2013-08-04 04:17:00,
2013-08-03 23:22:00,63.1,57.2,30.03,North,360,0.0,0.0,81,0.00,CLR,,0.79,WeatherDisplay:10.37,2013-08-04 04:22:00,
2013-08-03 23:27:00,62.9,57.0,30.03,North,360,0.0,0.0,81,0.00,CLR,,0.79,WeatherDisplay:10.37,2013-08-04 04:27:00,
2013-08-03 23:32:00,62.6,56.7,30.03,North,360,0.0,0.0,81,0.00,CLR,,0.79,WeatherDisplay:10.37,2013-08-04 04:32:00,
2013-08-03 23:37:00,62.4,56.5,30.03,North,360,0.0,0.0,81,0.00,CLR,,0.79,WeatherDisplay:10.37,2013-08-04 04:37:00,
2013-08-03 23:42:00,62.4,56.8,30.03,North,360,0.0,0.0,82,0.00,CLR,,0.79,WeatherDisplay:10.37,2013-08-04 04:42:00,
2013-08-03 23:47:00,62.3,56.7,30.03,North,360,0.0,0.0,82,0.00,CLR,,0.79,WeatherDisplay:10.37,2013-08-04 04:47:00,
2013-08-03 23:52:00,62.1,56.5,30.03,North,360,0.0,0.0,82,0.00,CLR,,0.79,WeatherDisplay:10.37,2013-08-04 04:52:00,
2013-08-03 23:57:00,62.0,56.8,30.03,North,360,0.0,0.0,83,0.00,CLR,,0.79,WeatherDisplay:10.37,2013-08-04 04:57:00,